sensor_id;sensor_type;location;lat;lon;timestamp;P1;P2;P0
68713;PMS7003;55690;51.566;19.198;2023-07-20T00:02:34;3;2;2
68713;PMS7003;55690;51.566;19.198;2023-07-20T00:06:40;3;3;3
68713;PMS7003;55690;51.566;19.198;2023-07-20T00:10:46;2;2;1
68713;PMS7003;55690;51.566;19.198;2023-07-20T00:14:53;2;2;2
68713;PMS7003;55690;51.566;19.198;2023-07-20T00:18:59;3;3;2
68713;PMS7003;55690;51.566;19.198;2023-07-20T00:23:05;1;1;1
68713;PMS7003;55690;51.566;19.198;2023-07-20T00:27:11;2;2;2
68713;PMS7003;55690;51.566;19.198;2023-07-20T00:31:17;8;2;2
68713;PMS7003;55690;51.566;19.198;2023-07-20T00:35:23;3;2;2
68713;PMS7003;55690;51.566;19.198;2023-07-20T00:39:30;2;0;0
68713;PMS7003;55690;51.566;19.198;2023-07-20T00:43:36;3;3;3
68713;PMS7003;55690;51.566;19.198;2023-07-20T00:47:42;9;1;1
68713;PMS7003;55690;51.566;19.198;2023-07-20T00:51:48;4;3;3
68713;PMS7003;55690;51.566;19.198;2023-07-20T00:55:54;9;5;4
68713;PMS7003;55690;51.566;19.198;2023-07-20T01:00:00;6;2;2
68713;PMS7003;55690;51.566;19.198;2023-07-20T01:04:07;2;2;2
68713;PMS7003;55690;51.566;19.198;2023-07-20T01:08:24;4;4;3
68713;PMS7003;55690;51.566;19.198;2023-07-20T01:12:30;5;3;2
68713;PMS7003;55690;51.566;19.198;2023-07-20T01:16:39;5;3;3
68713;PMS7003;55690;51.566;19.198;2023-07-20T01:20:40;2;2;2
68713;PMS7003;55690;51.566;19.198;2023-07-20T01:33:10;5;4;4
68713;PMS7003;55690;51.566;19.198;2023-07-20T01:37:15;3;3;3
68713;PMS7003;55690;51.566;19.198;2023-07-20T01:41:21;2;2;2
68713;PMS7003;55690;51.566;19.198;2023-07-20T01:45:23;8;4;3
68713;PMS7003;55690;51.566;19.198;2023-07-20T01:49:26;2;2;2
68713;PMS7003;55690;51.566;19.198;2023-07-20T01:53:33;5;5;4
68713;PMS7003;55690;51.566;19.198;2023-07-20T01:57:35;4;4;4
68713;PMS7003;55690;51.566;19.198;2023-07-20T02:01:37;6;5;4
68713;PMS7003;55690;51.566;19.198;2023-07-20T02:05:43;7;3;3
68713;PMS7003;55690;51.566;19.198;2023-07-20T02:09:46;3;3;3
68713;PMS7003;55690;51.566;19.198;2023-07-20T02:13:53;10;3;3
68713;PMS7003;55690;51.566;19.198;2023-07-20T02:17:59;4;4;4
68713;PMS7003;55690;51.566;19.198;2023-07-20T02:22:05;4;4;3
68713;PMS7003;55690;51.566;19.198;2023-07-20T02:26:11;6;6;5
68713;PMS7003;55690;51.566;19.198;2023-07-20T02:30:17;5;2;2
68713;PMS7003;55690;51.566;19.198;2023-07-20T02:34:23;8;6;5
68713;PMS7003;55690;51.566;19.198;2023-07-20T02:38:30;4;4;4
68713;PMS7003;55690;51.566;19.198;2023-07-20T02:42:36;5;5;4
68713;PMS7003;55690;51.566;19.198;2023-07-20T02:46:42;7;7;6
68713;PMS7003;55690;51.566;19.198;2023-07-20T02:50:48;7;5;5
68713;PMS7003;55690;51.566;19.198;2023-07-20T02:54:54;7;6;6
68713;PMS7003;55690;51.566;19.198;2023-07-20T02:59:01;12;4;4
68713;PMS7003;55690;51.566;19.198;2023-07-20T03:03:07;9;7;7
68713;PMS7003;55690;51.566;19.198;2023-07-20T03:07:13;7;7;5
68713;PMS7003;55690;51.566;19.198;2023-07-20T03:11:19;5;5;5
68713;PMS7003;55690;51.566;19.198;2023-07-20T03:15:25;11;5;5
68713;PMS7003;55690;51.566;19.198;2023-07-20T03:19:31;7;7;5
68713;PMS7003;55690;51.566;19.198;2023-07-20T03:23:38;3;3;3
68713;PMS7003;55690;51.566;19.198;2023-07-20T03:27:44;5;5;4
68713;PMS7003;55690;51.566;19.198;2023-07-20T03:31:50;3;3;3
68713;PMS7003;55690;51.566;19.198;2023-07-20T03:35:58;6;4;4
68713;PMS7003;55690;51.566;19.198;2023-07-20T03:40:05;6;6;6
68713;PMS7003;55690;51.566;19.198;2023-07-20T03:44:09;8;8;8
68713;PMS7003;55690;51.566;19.198;2023-07-20T03:48:15;9;7;4
68713;PMS7003;55690;51.566;19.198;2023-07-20T03:52:21;8;8;6
68713;PMS7003;55690;51.566;19.198;2023-07-20T03:56:27;7;6;5
68713;PMS7003;55690;51.566;19.198;2023-07-20T04:00:34;4;4;3
68713;PMS7003;55690;51.566;19.198;2023-07-20T04:04:39;6;6;5
68713;PMS7003;55690;51.566;19.198;2023-07-20T04:08:45;7;7;6
68713;PMS7003;55690;51.566;19.198;2023-07-20T04:12:52;10;10;9
68713;PMS7003;55690;51.566;19.198;2023-07-20T04:16:58;7;7;5
68713;PMS7003;55690;51.566;19.198;2023-07-20T04:21:04;8;8;6
68713;PMS7003;55690;51.566;19.198;2023-07-20T04:25:10;6;6;5
68713;PMS7003;55690;51.566;19.198;2023-07-20T04:29:16;8;8;7
68713;PMS7003;55690;51.566;19.198;2023-07-20T04:33:22;5;5;3
68713;PMS7003;55690;51.566;19.198;2023-07-20T04:37:28;17;5;5
68713;PMS7003;55690;51.566;19.198;2023-07-20T04:41:35;6;6;5
68713;PMS7003;55690;51.566;19.198;2023-07-20T04:45:41;10;6;6
68713;PMS7003;55690;51.566;19.198;2023-07-20T04:49:47;21;7;7
68713;PMS7003;55690;51.566;19.198;2023-07-20T04:53:53;12;8;8
68713;PMS7003;55690;51.566;19.198;2023-07-20T04:58:02;9;8;7
68713;PMS7003;55690;51.566;19.198;2023-07-20T05:02:05;10;7;4
68713;PMS7003;55690;51.566;19.198;2023-07-20T05:06:12;8;8;7
68713;PMS7003;55690;51.566;19.198;2023-07-20T05:10:18;14;10;8
68713;PMS7003;55690;51.566;19.198;2023-07-20T05:14:24;10;9;9
68713;PMS7003;55690;51.566;19.198;2023-07-20T05:18:30;11;7;7
68713;PMS7003;55690;51.566;19.198;2023-07-20T05:22:36;7;7;6
68713;PMS7003;55690;51.566;19.198;2023-07-20T05:35:10;10;8;7
68713;PMS7003;55690;51.566;19.198;2023-07-20T05:39:12;8;8;8
68713;PMS7003;55690;51.566;19.198;2023-07-20T05:43:14;14;11;10
68713;PMS7003;55690;51.566;19.198;2023-07-20T05:47:16;10;10;8
68713;PMS7003;55690;51.566;19.198;2023-07-20T05:51:19;15;14;12
68713;PMS7003;55690;51.566;19.198;2023-07-20T05:55:26;11;11;9
68713;PMS7003;55690;51.566;19.198;2023-07-20T05:59:32;14;12;8
68713;PMS7003;55690;51.566;19.198;2023-07-20T06:03:38;12;12;10
68713;PMS7003;55690;51.566;19.198;2023-07-20T06:07:44;19;18;11
68713;PMS7003;55690;51.566;19.198;2023-07-20T06:11:50;9;7;5
68713;PMS7003;55690;51.566;19.198;2023-07-20T06:15:56;17;16;9
68713;PMS7003;55690;51.566;19.198;2023-07-20T06:20:03;18;15;11
68713;PMS7003;55690;51.566;19.198;2023-07-20T06:24:09;15;10;8
68713;PMS7003;55690;51.566;19.198;2023-07-20T06:28:15;10;10;8
68713;PMS7003;55690;51.566;19.198;2023-07-20T06:32:21;10;9;7
68713;PMS7003;55690;51.566;19.198;2023-07-20T06:36:27;14;12;8
68713;PMS7003;55690;51.566;19.198;2023-07-20T06:40:33;15;14;11
68713;PMS7003;55690;51.566;19.198;2023-07-20T06:44:39;19;13;11
68713;PMS7003;55690;51.566;19.198;2023-07-20T06:48:46;16;16;13
68713;PMS7003;55690;51.566;19.198;2023-07-20T06:52:52;14;14;11
68713;PMS7003;55690;51.566;19.198;2023-07-20T06:56:58;20;12;8
68713;PMS7003;55690;51.566;19.198;2023-07-20T07:01:05;13;12;10
68713;PMS7003;55690;51.566;19.198;2023-07-20T07:05:10;11;11;9
68713;PMS7003;55690;51.566;19.198;2023-07-20T07:09:16;14;14;11
68713;PMS7003;55690;51.566;19.198;2023-07-20T07:13:23;15;12;11
68713;PMS7003;55690;51.566;19.198;2023-07-20T07:17:29;12;11;8
68713;PMS7003;55690;51.566;19.198;2023-07-20T07:21:35;13;13;11
68713;PMS7003;55690;51.566;19.198;2023-07-20T07:25:41;16;13;11
68713;PMS7003;55690;51.566;19.198;2023-07-20T07:29:47;17;17;12
68713;PMS7003;55690;51.566;19.198;2023-07-20T07:33:53;18;14;12
68713;PMS7003;55690;51.566;19.198;2023-07-20T07:38:00;14;10;9
68713;PMS7003;55690;51.566;19.198;2023-07-20T07:42:06;14;13;12
68713;PMS7003;55690;51.566;19.198;2023-07-20T07:46:12;9;9;7
68713;PMS7003;55690;51.566;19.198;2023-07-20T07:50:18;19;14;10
68713;PMS7003;55690;51.566;19.198;2023-07-20T07:54:24;11;9;8
68713;PMS7003;55690;51.566;19.198;2023-07-20T07:58:30;14;10;9
68713;PMS7003;55690;51.566;19.198;2023-07-20T08:02:37;17;15;12
68713;PMS7003;55690;51.566;19.198;2023-07-20T08:06:44;11;11;9
68713;PMS7003;55690;51.566;19.198;2023-07-20T08:10:49;10;10;9
68713;PMS7003;55690;51.566;19.198;2023-07-20T08:14:55;10;10;9
68713;PMS7003;55690;51.566;19.198;2023-07-20T08:19:01;10;10;9
68713;PMS7003;55690;51.566;19.198;2023-07-20T08:23:07;13;13;9
68713;PMS7003;55690;51.566;19.198;2023-07-20T08:27:14;10;10;9
68713;PMS7003;55690;51.566;19.198;2023-07-20T08:31:20;12;11;10
68713;PMS7003;55690;51.566;19.198;2023-07-20T08:39:49;8;8;5
68713;PMS7003;55690;51.566;19.198;2023-07-20T08:44:06;10;8;7
68713;PMS7003;55690;51.566;19.198;2023-07-20T08:48:19;6;6;6
68713;PMS7003;55690;51.566;19.198;2023-07-20T08:57:07;6;6;6
68713;PMS7003;55690;51.566;19.198;2023-07-20T09:01:15;5;5;5
68713;PMS7003;55690;51.566;19.198;2023-07-20T09:05:20;7;7;5
68713;PMS7003;55690;51.566;19.198;2023-07-20T09:09:23;6;6;5
68713;PMS7003;55690;51.566;19.198;2023-07-20T09:13:25;3;3;3
68713;PMS7003;55690;51.566;19.198;2023-07-20T09:17:27;6;6;5
68713;PMS7003;55690;51.566;19.198;2023-07-20T09:21:29;5;5;5
68713;PMS7003;55690;51.566;19.198;2023-07-20T09:25:35;3;3;3
68713;PMS7003;55690;51.566;19.198;2023-07-20T09:33:52;4;4;4
68713;PMS7003;55690;51.566;19.198;2023-07-20T09:37:58;6;6;5
68713;PMS7003;55690;51.566;19.198;2023-07-20T09:42:01;3;3;3
68713;PMS7003;55690;51.566;19.198;2023-07-20T09:46:05;5;5;5
68713;PMS7003;55690;51.566;19.198;2023-07-20T09:50:09;4;4;4
68713;PMS7003;55690;51.566;19.198;2023-07-20T09:58:47;5;3;2
68713;PMS7003;55690;51.566;19.198;2023-07-20T10:02:51;3;3;3
68713;PMS7003;55690;51.566;19.198;2023-07-20T10:06:55;4;4;3
68713;PMS7003;55690;51.566;19.198;2023-07-20T10:11:00;6;6;6
68713;PMS7003;55690;51.566;19.198;2023-07-20T10:15:13;3;3;3
68713;PMS7003;55690;51.566;19.198;2023-07-20T10:27:43;2;2;2
68713;PMS7003;55690;51.566;19.198;2023-07-20T10:31:45;3;3;3
68713;PMS7003;55690;51.566;19.198;2023-07-20T10:44:27;6;6;6
68713;PMS7003;55690;51.566;19.198;2023-07-20T10:49:07;3;3;3
68713;PMS7003;55690;51.566;19.198;2023-07-20T10:53:19;9;6;5
68713;PMS7003;55690;51.566;19.198;2023-07-20T10:57:28;9;7;6
68713;PMS7003;55690;51.566;19.198;2023-07-20T11:06:29;7;7;7
68713;PMS7003;55690;51.566;19.198;2023-07-20T11:18:59;5;5;4
68713;PMS7003;55690;51.566;19.198;2023-07-20T11:23:01;3;3;3
68713;PMS7003;55690;51.566;19.198;2023-07-20T11:27:04;4;4;4
68713;PMS7003;55690;51.566;19.198;2023-07-20T11:31:07;4;4;3
68713;PMS7003;55690;51.566;19.198;2023-07-20T11:35:13;3;3;3
68713;PMS7003;55690;51.566;19.198;2023-07-20T11:39:19;1;1;1
68713;PMS7003;55690;51.566;19.198;2023-07-20T11:44:11;0;0;0
68713;PMS7003;55690;51.566;19.198;2023-07-20T11:48:17;6;0;0
68713;PMS7003;55690;51.566;19.198;2023-07-20T11:52:24;0;0;0
68713;PMS7003;55690;51.566;19.198;2023-07-20T11:56:29;0;0;0
68713;PMS7003;55690;51.566;19.198;2023-07-20T12:00:37;0;0;0
68713;PMS7003;55690;51.566;19.198;2023-07-20T12:04:42;0;0;0
68713;PMS7003;55690;51.566;19.198;2023-07-20T12:08:48;1;1;1
68713;PMS7003;55690;51.566;19.198;2023-07-20T12:12:54;0;0;0
68713;PMS7003;55690;51.566;19.198;2023-07-20T12:17:01;6;0;0
68713;PMS7003;55690;51.566;19.198;2023-07-20T12:21:07;0;0;0
68713;PMS7003;55690;51.566;19.198;2023-07-20T12:25:12;1;1;1
68713;PMS7003;55690;51.566;19.198;2023-07-20T12:29:19;0;0;0
68713;PMS7003;55690;51.566;19.198;2023-07-20T12:33:25;0;0;0
68713;PMS7003;55690;51.566;19.198;2023-07-20T12:37:31;0;0;0
68713;PMS7003;55690;51.566;19.198;2023-07-20T12:41:37;4;0;0
68713;PMS7003;55690;51.566;19.198;2023-07-20T12:45:43;1;1;1
68713;PMS7003;55690;51.566;19.198;2023-07-20T12:49:50;6;3;3
68713;PMS7003;55690;51.566;19.198;2023-07-20T12:53:56;2;2;1
68713;PMS7003;55690;51.566;19.198;2023-07-20T12:58:02;3;2;2
68713;PMS7003;55690;51.566;19.198;2023-07-20T13:02:08;1;1;1
68713;PMS7003;55690;51.566;19.198;2023-07-20T13:06:14;3;2;1
68713;PMS7003;55690;51.566;19.198;2023-07-20T13:10:22;2;2;2
68713;PMS7003;55690;51.566;19.198;2023-07-20T13:14:31;1;1;1
68713;PMS7003;55690;51.566;19.198;2023-07-20T13:18:39;2;2;2
68713;PMS7003;55690;51.566;19.198;2023-07-20T13:22:41;1;1;0
68713;PMS7003;55690;51.566;19.198;2023-07-20T13:26:45;2;2;2
68713;PMS7003;55690;51.566;19.198;2023-07-20T13:30:51;2;2;2
68713;PMS7003;55690;51.566;19.198;2023-07-20T13:34:57;1;1;1
68713;PMS7003;55690;51.566;19.198;2023-07-20T13:39:03;2;2;2
68713;PMS7003;55690;51.566;19.198;2023-07-20T13:43:10;0;0;0
68713;PMS7003;55690;51.566;19.198;2023-07-20T13:47:16;1;1;1
68713;PMS7003;55690;51.566;19.198;2023-07-20T13:51:22;1;1;1
68713;PMS7003;55690;51.566;19.198;2023-07-20T13:55:28;5;1;1
68713;PMS7003;55690;51.566;19.198;2023-07-20T13:59:34;1;1;1
68713;PMS7003;55690;51.566;19.198;2023-07-20T14:03:40;1;1;1
68713;PMS7003;55690;51.566;19.198;2023-07-20T14:07:46;1;1;1
68713;PMS7003;55690;51.566;19.198;2023-07-20T14:11:53;2;2;2
68713;PMS7003;55690;51.566;19.198;2023-07-20T14:15:59;2;2;2
68713;PMS7003;55690;51.566;19.198;2023-07-20T14:20:05;4;4;4
68713;PMS7003;55690;51.566;19.198;2023-07-20T14:24:11;5;3;3
68713;PMS7003;55690;51.566;19.198;2023-07-20T14:28:17;2;1;1
68713;PMS7003;55690;51.566;19.198;2023-07-20T14:32:23;3;3;3
68713;PMS7003;55690;51.566;19.198;2023-07-20T14:36:30;3;2;2
68713;PMS7003;55690;51.566;19.198;2023-07-20T14:40:36;6;3;2
68713;PMS7003;55690;51.566;19.198;2023-07-20T14:44:42;2;2;2
68713;PMS7003;55690;51.566;19.198;2023-07-20T14:48:48;2;2;2
68713;PMS7003;55690;51.566;19.198;2023-07-20T14:52:55;8;2;2
68713;PMS7003;55690;51.566;19.198;2023-07-20T14:57:00;3;3;3
68713;PMS7003;55690;51.566;19.198;2023-07-20T15:01:07;1;1;1
68713;PMS7003;55690;51.566;19.198;2023-07-20T15:05:19;2;2;2
68713;PMS7003;55690;51.566;19.198;2023-07-20T15:09:23;2;2;2
68713;PMS7003;55690;51.566;19.198;2023-07-20T15:13:25;1;1;1
68713;PMS7003;55690;51.566;19.198;2023-07-20T15:17:32;2;2;2
68713;PMS7003;55690;51.566;19.198;2023-07-20T15:21:38;1;1;1
68713;PMS7003;55690;51.566;19.198;2023-07-20T15:25:44;0;0;0
68713;PMS7003;55690;51.566;19.198;2023-07-20T15:29:50;3;3;3
68713;PMS7003;55690;51.566;19.198;2023-07-20T15:33:56;2;2;1
68713;PMS7003;55690;51.566;19.198;2023-07-20T15:38:03;2;2;2
68713;PMS7003;55690;51.566;19.198;2023-07-20T15:42:09;3;3;2
68713;PMS7003;55690;51.566;19.198;2023-07-20T15:50:28;3;3;2
68713;PMS7003;55690;51.566;19.198;2023-07-20T15:54:30;2;2;2
68713;PMS7003;55690;51.566;19.198;2023-07-20T15:58:33;3;3;3
68713;PMS7003;55690;51.566;19.198;2023-07-20T16:02:40;5;5;4
68713;PMS7003;55690;51.566;19.198;2023-07-20T16:06:46;4;2;2
68713;PMS7003;55690;51.566;19.198;2023-07-20T16:10:53;3;3;3
68713;PMS7003;55690;51.566;19.198;2023-07-20T16:14:58;2;2;2
68713;PMS7003;55690;51.566;19.198;2023-07-20T16:19:04;3;3;2
68713;PMS7003;55690;51.566;19.198;2023-07-20T16:23:10;4;4;4
68713;PMS7003;55690;51.566;19.198;2023-07-20T16:27:16;3;3;3
68713;PMS7003;55690;51.566;19.198;2023-07-20T16:31:23;6;6;4
68713;PMS7003;55690;51.566;19.198;2023-07-20T16:35:29;2;2;2
68713;PMS7003;55690;51.566;19.198;2023-07-20T16:39:36;5;4;4
68713;PMS7003;55690;51.566;19.198;2023-07-20T16:43:47;1;1;1
68713;PMS7003;55690;51.566;19.198;2023-07-20T16:47:48;2;2;2
68713;PMS7003;55690;51.566;19.198;2023-07-20T16:51:53;2;2;2
68713;PMS7003;55690;51.566;19.198;2023-07-20T16:56:00;2;2;1
68713;PMS7003;55690;51.566;19.198;2023-07-20T17:00:08;2;2;1
68713;PMS7003;55690;51.566;19.198;2023-07-20T17:04:15;5;2;2
68713;PMS7003;55690;51.566;19.198;2023-07-20T17:08:18;2;0;0
68713;PMS7003;55690;51.566;19.198;2023-07-20T17:12:24;1;1;1
68713;PMS7003;55690;51.566;19.198;2023-07-20T17:16:30;3;3;3
68713;PMS7003;55690;51.566;19.198;2023-07-20T17:20:37;2;2;2
68713;PMS7003;55690;51.566;19.198;2023-07-20T17:24:43;3;3;3
68713;PMS7003;55690;51.566;19.198;2023-07-20T17:28:49;3;3;3
68713;PMS7003;55690;51.566;19.198;2023-07-20T17:32:55;4;4;3
68713;PMS7003;55690;51.566;19.198;2023-07-20T17:37:01;1;1;1
68713;PMS7003;55690;51.566;19.198;2023-07-20T17:41:08;3;3;2
68713;PMS7003;55690;51.566;19.198;2023-07-20T17:45:14;2;2;2
68713;PMS7003;55690;51.566;19.198;2023-07-20T17:49:20;2;2;2
68713;PMS7003;55690;51.566;19.198;2023-07-20T17:53:26;0;0;0
68713;PMS7003;55690;51.566;19.198;2023-07-20T17:57:32;1;1;1
68713;PMS7003;55690;51.566;19.198;2023-07-20T18:01:38;2;1;1
68713;PMS7003;55690;51.566;19.198;2023-07-20T18:05:44;2;1;1
68713;PMS7003;55690;51.566;19.198;2023-07-20T18:09:50;2;2;2
68713;PMS7003;55690;51.566;19.198;2023-07-20T18:13:57;2;2;1
68713;PMS7003;55690;51.566;19.198;2023-07-20T18:18:03;2;2;2
68713;PMS7003;55690;51.566;19.198;2023-07-20T18:22:09;2;2;1
68713;PMS7003;55690;51.566;19.198;2023-07-20T18:26:15;1;1;1
68713;PMS7003;55690;51.566;19.198;2023-07-20T18:30:21;2;2;2
68713;PMS7003;55690;51.566;19.198;2023-07-20T18:34:27;0;0;0
68713;PMS7003;55690;51.566;19.198;2023-07-20T18:38:34;0;0;0
68713;PMS7003;55690;51.566;19.198;2023-07-20T18:42:40;0;0;0
68713;PMS7003;55690;51.566;19.198;2023-07-20T18:46:46;1;1;1
68713;PMS7003;55690;51.566;19.198;2023-07-20T18:50:52;1;1;1
68713;PMS7003;55690;51.566;19.198;2023-07-20T18:54:58;1;1;1
68713;PMS7003;55690;51.566;19.198;2023-07-20T18:59:04;1;1;1
68713;PMS7003;55690;51.566;19.198;2023-07-20T19:03:11;1;1;1
68713;PMS7003;55690;51.566;19.198;2023-07-20T19:07:17;1;1;1
68713;PMS7003;55690;51.566;19.198;2023-07-20T19:11:23;1;1;1
68713;PMS7003;55690;51.566;19.198;2023-07-20T19:15:29;1;1;1
68713;PMS7003;55690;51.566;19.198;2023-07-20T19:19:35;2;2;2
68713;PMS7003;55690;51.566;19.198;2023-07-20T19:23:41;2;2;1
68713;PMS7003;55690;51.566;19.198;2023-07-20T19:27:48;2;2;2
68713;PMS7003;55690;51.566;19.198;2023-07-20T19:31:54;1;1;1
68713;PMS7003;55690;51.566;19.198;2023-07-20T19:36:00;4;3;2
68713;PMS7003;55690;51.566;19.198;2023-07-20T19:40:06;3;3;3
68713;PMS7003;55690;51.566;19.198;2023-07-20T19:44:12;4;3;2
68713;PMS7003;55690;51.566;19.198;2023-07-20T19:48:18;2;2;2
68713;PMS7003;55690;51.566;19.198;2023-07-20T19:52:25;3;2;2
68713;PMS7003;55690;51.566;19.198;2023-07-20T19:56:31;2;2;2
68713;PMS7003;55690;51.566;19.198;2023-07-20T20:00:40;5;5;4
68713;PMS7003;55690;51.566;19.198;2023-07-20T20:04:43;10;2;2
68713;PMS7003;55690;51.566;19.198;2023-07-20T20:08:49;1;1;1
68713;PMS7003;55690;51.566;19.198;2023-07-20T20:12:55;2;2;2
68713;PMS7003;55690;51.566;19.198;2023-07-20T20:17:02;8;4;3
68713;PMS7003;55690;51.566;19.198;2023-07-20T20:21:08;3;3;3
68713;PMS7003;55690;51.566;19.198;2023-07-20T20:25:14;2;2;2
68713;PMS7003;55690;51.566;19.198;2023-07-20T20:29:20;3;3;2
68713;PMS7003;55690;51.566;19.198;2023-07-20T20:33:26;3;3;3
68713;PMS7003;55690;51.566;19.198;2023-07-20T20:37:32;6;6;4
68713;PMS7003;55690;51.566;19.198;2023-07-20T20:41:39;5;3;3
68713;PMS7003;55690;51.566;19.198;2023-07-20T20:45:47;2;2;2
68713;PMS7003;55690;51.566;19.198;2023-07-20T20:49:51;5;5;5
68713;PMS7003;55690;51.566;19.198;2023-07-20T20:53:57;3;3;3
68713;PMS7003;55690;51.566;19.198;2023-07-20T20:58:03;5;5;4
68713;PMS7003;55690;51.566;19.198;2023-07-20T21:02:09;4;4;4
68713;PMS7003;55690;51.566;19.198;2023-07-20T21:06:18;8;3;3
68713;PMS7003;55690;51.566;19.198;2023-07-20T21:10:22;2;2;2
68713;PMS7003;55690;51.566;19.198;2023-07-20T21:14:28;5;5;4
68713;PMS7003;55690;51.566;19.198;2023-07-20T21:18:34;7;4;3
68713;PMS7003;55690;51.566;19.198;2023-07-20T21:22:40;6;4;4
68713;PMS7003;55690;51.566;19.198;2023-07-20T21:26:46;5;5;4
68713;PMS7003;55690;51.566;19.198;2023-07-20T21:35:05;4;4;3
68713;PMS7003;55690;51.566;19.198;2023-07-20T21:39:08;4;4;4
68713;PMS7003;55690;51.566;19.198;2023-07-20T21:43:11;3;3;3
68713;PMS7003;55690;51.566;19.198;2023-07-20T21:47:18;6;5;5
68713;PMS7003;55690;51.566;19.198;2023-07-20T21:51:23;2;2;1
68713;PMS7003;55690;51.566;19.198;2023-07-20T21:55:30;5;2;2
68713;PMS7003;55690;51.566;19.198;2023-07-20T21:59:36;2;2;2
68713;PMS7003;55690;51.566;19.198;2023-07-20T22:03:42;4;4;3
68713;PMS7003;55690;51.566;19.198;2023-07-20T22:07:48;3;3;2
68713;PMS7003;55690;51.566;19.198;2023-07-20T22:11:55;13;4;4
68713;PMS7003;55690;51.566;19.198;2023-07-20T22:16:01;1;1;1
68713;PMS7003;55690;51.566;19.198;2023-07-20T22:20:07;4;4;4
68713;PMS7003;55690;51.566;19.198;2023-07-20T22:24:13;4;3;3
68713;PMS7003;55690;51.566;19.198;2023-07-20T22:28:19;1;1;1
68713;PMS7003;55690;51.566;19.198;2023-07-20T22:32:25;4;4;2
68713;PMS7003;55690;51.566;19.198;2023-07-20T22:36:31;3;3;2
68713;PMS7003;55690;51.566;19.198;2023-07-20T22:40:37;9;8;7
68713;PMS7003;55690;51.566;19.198;2023-07-20T22:44:44;5;5;4
68713;PMS7003;55690;51.566;19.198;2023-07-20T22:48:50;9;8;5
68713;PMS7003;55690;51.566;19.198;2023-07-20T22:52:56;8;8;7
68713;PMS7003;55690;51.566;19.198;2023-07-20T22:57:02;14;6;4
68713;PMS7003;55690;51.566;19.198;2023-07-20T23:01:09;9;8;7
68713;PMS7003;55690;51.566;19.198;2023-07-20T23:05:14;8;6;5
68713;PMS7003;55690;51.566;19.198;2023-07-20T23:09:21;4;3;3
68713;PMS7003;55690;51.566;19.198;2023-07-20T23:13:27;9;6;4
68713;PMS7003;55690;51.566;19.198;2023-07-20T23:17:33;14;7;6
68713;PMS7003;55690;51.566;19.198;2023-07-20T23:21:39;10;7;6
68713;PMS7003;55690;51.566;19.198;2023-07-20T23:25:50;6;6;5
68713;PMS7003;55690;51.566;19.198;2023-07-20T23:29:53;10;9;7
68713;PMS7003;55690;51.566;19.198;2023-07-20T23:33:58;8;7;6
68713;PMS7003;55690;51.566;19.198;2023-07-20T23:38:04;17;9;6
68713;PMS7003;55690;51.566;19.198;2023-07-20T23:42:10;13;9;8
68713;PMS7003;55690;51.566;19.198;2023-07-20T23:46:16;11;7;7
68713;PMS7003;55690;51.566;19.198;2023-07-20T23:50:28;11;5;5
68713;PMS7003;55690;51.566;19.198;2023-07-20T23:54:30;13;8;6
68713;PMS7003;55690;51.566;19.198;2023-07-20T23:58:35;4;4;4
